Pagrindinis puslapis
METAR-TAF:

METAR-TAF

Oro uostai :

Jonšiopingas, Švedija

platuma: 57-46N, ilguma: 014-05E, Aukštis: 226 m

Dabartinis oras

Ataskaita buvo paskelbta 24 minutes, ne 01:20 UTC
Vėjas 3 kt nuo kintamojo kryptimis
Temperatūra -1°C
Drėgmė 100%
Slėgis 995 hPa
Matomumas 10 km arba daugiau

METAR: ESGJ 250120Z AUTO VRB03KT 9999 NCD M01/M01 Q0995

Laikas: 02:44 (01:44 UTC)

Prognozė

Ataskaita buvo paskelbta 1 valandą ir 38 minutes, ne 00:06 UTC
Prognozė galioja nuo 25 metu 00 UTC su 25 metu 02 UTC
Vėjas 5 kt iš Rytų
Matomumas 10 km arba daugiau
Su prošvaistėmis ne aukštis 400 ft
Tapsmas
nuo 25 metu 00 UTC su 25 metu 01 UTC
Su prošvaistėmis ne aukštis 1500 ft
Tikimybė 40%
nuo 25 metu 01 UTC su 25 metu 02 UTC
Apsiniaukę ne aukštis 800 ft
sniegas

TAF: ESGJ 250006Z 2500/2502 10005KT 9999 BKN004 BECMG 2500/2501 BKN015 PROB40 2501/2502 -SN OVC008

Orai ataskaitas ir orų prognozės (METAR, TAF).

turimą stotys yra geltonos ir raudonos taškus žemėlapyje.

Perkelti pele per norėdami pamatyti stoties vardą.

Tada spustelėkite, norėdami matyti oro stebėjimo ir prognozės.

Norėdami pakeisti žemėlapį: spustelėkite ant žalios mygtukų su juodo kryžiaus žemyn,; žalią mygtuką su brūkšneliu, jei norite nutolinti; arba žalių rodyklių gretimoms žemėlapius.


METAR-TAF: